Details for Ryanair at EDDB




Go Back


Latest METAR
Local Time

EDDB 252150Z 03005KT CAVOK 17/10 Q1021 NOSIG

26/05/2018, 00:19:58

Description
Results
Ryanair Logo
Number of Pilots based at EDDB
1 Pilots Based here
Number of Ryanair Flights Departed from EDDB
10 Flights Departed
Number of Ryanair Flights Arrived at EDDB
8 Flights Arrived
Number of Ryanair Schedules Departing from EDDB
132 Schedules
Number of Ryanair Schedules Arriving at EDDB
134 Schedules
Number of Ryanair Schedules Departing from EDDB availible today
46 Schedules Today
Number of Ryanair Schedules Arriving at EDDB availible today
46 Schedules Today
Average Landing Rate at EDDB
-166 fpm
Ryanair Average Landing Rate at EDDB
-172 fpm
Total Fuel Purchased at EDDB by Ryanair
48,689.06 kgs / 107,339.90 lbs

Pilots Based at EDDB


Pilot ID
Pilot Name
Pilot Rank
No. of Flights
No. of Flying Hours
Berny Goodman
305
414.14
Content